Flight Track Log - Related Links

Times and Time Zones

All times are in EST time to prevent confusion due to time zone crossing. See the SWA367 flight status page for this flight to view local times or setup timezone preferences in your user account.

Time Position Orientation Groundspeed Altitude Reporting Facility
EST Latitude Longitude Course Direction KTS MPH feet Rate Location/Type
Tue 08:15:23 PM 40.5233 -80.4111 283° West 231 266 7,900  Level Cleveland Center
Tue 08:16:24 PM 40.5439 -80.5044 286° West 263 303 11,200 3,317 Climbing Cleveland Center
Tue 08:17:26 PM 40.5667 -80.6122 286° West 302 348 14,700 3,145 Climbing Cleveland Center
Tue 08:18:28 PM 40.5725 -80.7258 274° West 309 356 17,700 2,952 Climbing Cleveland Center
Tue 08:19:00 PM 40.6287 -80.9102 285° West  Level FlightAware Approximate
Tue 08:19:30 PM 40.5781 -80.8450 274° West 324 373 20,800  Level Cleveland Center
Tue 08:20:32 PM 40.5881 -80.9647 276° West 332 382 22,900 2,032 Climbing Cleveland Center
Tue 08:21:34 PM 40.6247 -81.1017 289° West 361 415 25,000 2,032 Climbing Cleveland Center
Tue 08:22:36 PM 40.6594 -81.2317 289° West 370 426 27,100 2,226 Climbing Cleveland Center
Tue 08:23:38 PM 40.6925 -81.3600 289° West 369 425 29,600 2,274 Climbing Cleveland Center
Tue 08:24:40 PM 40.7242 -81.4850 289° West 357 411 31,800 1,161 Climbing Cleveland Center
Tue 08:25:42 PM 40.7614 -81.6311 289° West 356 410 32,000 98 Climbing Cleveland Center
Tue 08:26:43 PM 40.7936 -81.7606 288° West 363 418 32,000  Level Cleveland Center
Tue 08:27:45 PM 40.8272 -81.8897 289° West 365 420 32,000  Level Cleveland Center
Tue 08:28:47 PM 40.8592 -82.0200 288° West 367 422 32,000  Level Cleveland Center
Tue 08:29:49 PM 40.8919 -82.1478 289° West 366 421 32,000  Level Cleveland Center
Tue 08:30:51 PM 40.9231 -82.2775 288° West 366 421 32,000  Level Cleveland Center
Tue 08:31:53 PM 40.9553 -82.4058 288° West 366 421 32,000  Level Cleveland Center
Tue 08:32:55 PM 40.9878 -82.5353 288° West 365 420 32,000  Level Cleveland Center
Tue 08:33:57 PM 41.0183 -82.6647 287° West 365 420 32,000  Level Cleveland Center
Tue 08:34:59 PM 41.0500 -82.7942 288° West 365 420 32,000  Level Cleveland Center
Tue 08:36:01 PM 41.0864 -82.9464 288° West 366 421 32,000  Level Cleveland Center
Tue 08:37:03 PM 41.1172 -83.0756 288° West 366 421 32,000  Level Cleveland Center
Tue 08:38:04 PM 41.1475 -83.2008 288° West 366 421 32,000  Level Cleveland Center
Tue 08:39:06 PM 41.1786 -83.3292 288° West 366 421 32,000  Level Cleveland Center
Tue 08:40:08 PM 41.2086 -83.4581 287° West 366 421 32,000  Level Cleveland Center
Tue 08:41:10 PM 41.2381 -83.5856 287° West 364 419 32,000  Level Cleveland Center
Tue 08:42:12 PM 41.2683 -83.7131 288° West 364 419 32,000  Level Cleveland Center
Tue 08:43:13 PM 41.3025 -83.8656 287° West 363 418 32,000  Level Cleveland Center
Tue 08:43:48 PM 41.3172 -83.9219 289° West 358 412 32,000  Level Chicago Center
Tue 08:44:50 PM 41.3450 -84.0500 286° West 360 414 32,000 -97 Level Chicago Center
Tue 08:45:52 PM 41.3806 -84.2019 287° West 360 414 31,800 -581 Descending Chicago Center
Tue 08:46:54 PM 41.4094 -84.3292 287° West 360 414 30,800 -871 Descending Chicago Center
Tue 08:47:56 PM 41.4381 -84.4556 287° West 356 410 30,000 -387 Descending Chicago Center
Tue 08:48:58 PM 41.4661 -84.5839 286° West 360 414 30,000  Level Chicago Center
Tue 08:50:00 PM 41.4839 -84.7153 280° West 363 418 30,000 -97 Level Chicago Center
Tue 08:51:02 PM 41.4883 -84.8481 273° West 360 414 29,800 -629 Descending Chicago Center
Tue 08:52:04 PM 41.4953 -85.0117 273° West 366 421 28,700 -1,016 Descending Chicago Center
Tue 08:53:06 PM 41.4997 -85.1478 273° West 367 422 27,700 -1,113 Descending Chicago Center
Tue 08:54:08 PM 41.5042 -85.2844 273° West 367 422 26,400 -1,742 Descending Chicago Center
Tue 08:55:10 PM 41.5086 -85.4175 273° West 356 410 24,100 -1,152 Descending Chicago Center
Tue 08:56:13 PM 41.5100 -85.5431 271° West 333 383 24,000  Descending Chicago Center
Tue 08:57:15 PM 41.5122 -85.6636 271° West 323 372 24,100 -97 Climbing Chicago Center
Tue 08:58:17 PM 41.5139 -85.7869 271° West 330 380 23,800 -1,355 Descending Chicago Center
Tue 08:59:19 PM 41.5169 -85.9072 272° West 324 373 21,300 -2,710 Descending Chicago Center
Tue 09:00:21 PM 41.5181 -86.0514 271° West 322 371 18,200 -2,758 Descending Chicago Center
Tue 09:01:23 PM 41.5200 -86.1725 271° West 326 375 15,600 -2,468 Descending Chicago Center
Tue 09:02:25 PM 41.5217 -86.2897 271° West 316 364 13,100 -2,177 Descending Chicago Center
Tue 09:03:27 PM 41.5231 -86.4022 271° West 306 352 11,100 -1,403 Descending Chicago Center
Tue 09:04:29 PM 41.5219 -86.5136 269° West 301 346 10,200 -484 Descending Chicago Center
Tue 09:05:31 PM 41.5211 -86.6286 269° West 308 354 10,100 -145 Descending Chicago Center
Tue 09:06:33 PM 41.5203 -86.7506 270° West 291 335 9,900 -823 Descending Chicago Center
Tue 09:07:35 PM 41.5189 -86.8394 269° West 244 281 8,400 -1,403 Descending Chicago Center
Tue 09:08:37 PM 41.5189 -86.9261 270° West 234 269 7,000 -1,161 Descending Chicago Center
Tue 09:09:39 PM 41.5164 -87.0325 268° West 238 274 6,000 -532 Descending Chicago Center
Tue 09:10:41 PM 41.5167 -87.1233 270° West 244 281 5,900 -435 Descending Chicago Center
Tue 09:11:43 PM 41.5586 -87.1900 310° West 262 302 5,100 -968 Descending Chicago Center
Tue 09:12:45 PM 41.6211 -87.2269 336° Northwest 251 289 3,900 -581 Descending Chicago Center
Tue 09:13:47 PM 41.6828 -87.2631 336° Northwest 246 283 3,900  Level Chicago Center
Tue 09:14:49 PM 41.7319 -87.2819 344° North 203 234 3,900 -194 Level Chicago Center
Tue 09:15:51 PM 41.7967 -87.2669 10° North 200 230 3,500 -488 Descending Chicago Center
Tue 09:16:52 PM 41.8469 -87.2669 360° North 204 235 2,900 -293 Descending Chicago Center
Tue 09:17:54 PM 41.8531 -87.3186 279° West 164 189 2,900  Level Chicago Center
Tue 09:18:56 PM 41.8522 -87.3753 269° West 155 178 2,900  Level Chicago Center
Tue 09:19:58 PM 41.8517 -87.4292 269° West 150 173 2,900  Level Chicago Center
Tue 09:21:00 PM 41.8506 -87.4850 268° West 149 171 2,900  Level Chicago Center
Tue 09:22:02 PM 41.8506 -87.5503 270° West 148 170 2,900 -146 Level Chicago Center
Tue 09:23:03 PM 41.8481 -87.6061 267° West 149 171 2,600 -341 Descending Chicago Center
Tue 09:24:05 PM 41.8444 -87.6561 264° West 144 166 2,200 -435 Descending Chicago Center
Tue 09:25:07 PM 41.8250 -87.6861 229° Southwest 120 138 1,700 -484 Descending Chicago Center
Tue 09:26:09 PM 41.8125 -87.7183 243° Southwest 104 120 1,200 -341 Descending Chicago Center
Tue 09:27:10 PM 41.7958 -87.7494 234° Southwest 105 121 1,000 -197 Descending Chicago Center

Login

Don't have an account? Register now (free) for customized features, flight alerts, and more!